sensor_id;sensor_type;location;lat;lon;timestamp;pressure;altitude;pressure_sealevel;temperature;humidity
19576;BME280;41589;51.196;7.074;2023-06-04T00:03:24;99347.44;;;16.92;28.43
19576;BME280;41589;51.196;7.074;2023-06-04T00:08:24;99354.44;;;16.70;29.00
19576;BME280;41589;51.196;7.074;2023-06-04T00:13:25;99344.59;;;16.66;28.89
19576;BME280;41589;51.196;7.074;2023-06-04T00:18:25;99337.94;;;16.54;28.86
19576;BME280;41589;51.196;7.074;2023-06-04T00:23:26;99329.25;;;16.37;29.02
19576;BME280;41589;51.196;7.074;2023-06-04T00:28:26;99339.31;;;16.38;29.29
19576;BME280;41589;51.196;7.074;2023-06-04T00:33:27;99329.94;;;16.32;29.41
19576;BME280;41589;51.196;7.074;2023-06-04T00:38:27;99334.00;;;16.46;29.37
19576;BME280;41589;51.196;7.074;2023-06-04T00:43:28;99323.69;;;16.28;29.31
19576;BME280;41589;51.196;7.074;2023-06-04T00:48:32;99328.09;;;16.29;29.42
19576;BME280;41589;51.196;7.074;2023-06-04T00:53:33;99341.81;;;16.31;29.49
19576;BME280;41589;51.196;7.074;2023-06-04T00:58:39;99329.31;;;16.23;29.62
19576;BME280;41589;51.196;7.074;2023-06-04T01:03:42;99338.13;;;16.25;29.59
19576;BME280;41589;51.196;7.074;2023-06-04T01:08:45;99333.38;;;16.16;29.75
19576;BME280;41589;51.196;7.074;2023-06-04T01:13:46;99330.44;;;16.10;29.79
19576;BME280;41589;51.196;7.074;2023-06-04T01:18:49;99331.72;;;16.09;29.94
19576;BME280;41589;51.196;7.074;2023-06-04T01:23:52;99334.97;;;16.02;29.89
19576;BME280;41589;51.196;7.074;2023-06-04T01:29:04;99339.44;;;15.88;30.14
19576;BME280;41589;51.196;7.074;2023-06-04T01:34:07;99339.47;;;15.74;30.37
19576;BME280;41589;51.196;7.074;2023-06-04T01:39:14;99354.44;;;15.59;30.71
19576;BME280;41589;51.196;7.074;2023-06-04T01:44:14;99342.25;;;15.53;30.74
19576;BME280;41589;51.196;7.074;2023-06-04T01:49:20;99353.41;;;15.42;31.12
19576;BME280;41589;51.196;7.074;2023-06-04T01:54:21;99345.50;;;15.31;31.38
19576;BME280;41589;51.196;7.074;2023-06-04T01:59:22;99346.69;;;15.10;31.92
19576;BME280;41589;51.196;7.074;2023-06-04T02:04:25;99340.03;;;15.13;32.11
19576;BME280;41589;51.196;7.074;2023-06-04T02:09:34;99336.78;;;15.06;32.20
19576;BME280;41589;51.196;7.074;2023-06-04T02:14:35;99352.34;;;15.10;32.48
19576;BME280;41589;51.196;7.074;2023-06-04T02:19:40;99346.66;;;14.95;32.40
19576;BME280;41589;51.196;7.074;2023-06-04T02:24:46;99343.03;;;14.95;32.63
19576;BME280;41589;51.196;7.074;2023-06-04T02:29:50;99341.00;;;14.95;32.87
19576;BME280;41589;51.196;7.074;2023-06-04T02:34:59;99348.09;;;14.76;33.20
19576;BME280;41589;51.196;7.074;2023-06-04T02:40:04;99350.16;;;14.76;33.38
19576;BME280;41589;51.196;7.074;2023-06-04T02:45:08;99346.88;;;14.53;33.75
19576;BME280;41589;51.196;7.074;2023-06-04T02:50:12;99353.22;;;14.63;33.75
19576;BME280;41589;51.196;7.074;2023-06-04T02:55:13;99350.09;;;14.61;33.72
19576;BME280;41589;51.196;7.074;2023-06-04T03:00:14;99341.19;;;14.53;33.93
19576;BME280;41589;51.196;7.074;2023-06-04T03:05:16;99356.03;;;14.48;34.27
19576;BME280;41589;51.196;7.074;2023-06-04T03:10:17;99359.16;;;14.50;34.33
19576;BME280;41589;51.196;7.074;2023-06-04T03:15:21;99356.69;;;14.43;34.72
19576;BME280;41589;51.196;7.074;2023-06-04T03:20:21;99357.22;;;14.56;34.37
19576;BME280;41589;51.196;7.074;2023-06-04T03:25:26;99367.59;;;14.59;34.26
19576;BME280;41589;51.196;7.074;2023-06-04T03:30:27;99355.47;;;14.59;34.13
19576;BME280;41589;51.196;7.074;2023-06-04T03:35:33;99353.97;;;14.72;33.95
19576;BME280;41589;51.196;7.074;2023-06-04T03:40:34;99340.47;;;14.67;33.85
19576;BME280;41589;51.196;7.074;2023-06-04T03:45:37;99359.56;;;14.82;33.78
19576;BME280;41589;51.196;7.074;2023-06-04T03:50:42;99353.19;;;14.87;33.98
19576;BME280;41589;51.196;7.074;2023-06-04T03:55:48;99338.66;;;14.94;33.80
19576;BME280;41589;51.196;7.074;2023-06-04T04:00:48;99342.75;;;15.08;33.58
19576;BME280;41589;51.196;7.074;2023-06-04T04:05:50;99342.84;;;15.13;33.57
19576;BME280;41589;51.196;7.074;2023-06-04T04:10:51;99346.88;;;15.21;33.51
19576;BME280;41589;51.196;7.074;2023-06-04T04:15:51;99334.34;;;15.28;33.21
19576;BME280;41589;51.196;7.074;2023-06-04T04:20:55;99337.78;;;15.32;33.17
19576;BME280;41589;51.196;7.074;2023-06-04T04:25:58;99342.34;;;15.44;33.52
19576;BME280;41589;51.196;7.074;2023-06-04T04:31:00;99351.72;;;15.50;33.39
19576;BME280;41589;51.196;7.074;2023-06-04T04:36:06;99358.31;;;15.42;34.17
19576;BME280;41589;51.196;7.074;2023-06-04T04:41:09;99367.00;;;15.38;33.85
19576;BME280;41589;51.196;7.074;2023-06-04T04:46:13;99353.97;;;15.46;33.72
19576;BME280;41589;51.196;7.074;2023-06-04T04:51:17;99360.72;;;15.49;34.00
19576;BME280;41589;51.196;7.074;2023-06-04T04:56:18;99358.66;;;15.64;33.83
19576;BME280;41589;51.196;7.074;2023-06-04T05:01:22;99350.91;;;15.65;33.71
19576;BME280;41589;51.196;7.074;2023-06-04T05:06:24;99355.41;;;15.86;33.89
19576;BME280;41589;51.196;7.074;2023-06-04T05:11:24;99358.19;;;16.01;33.63
19576;BME280;41589;51.196;7.074;2023-06-04T05:16:26;99354.06;;;16.02;33.68
19576;BME280;41589;51.196;7.074;2023-06-04T05:21:28;99366.31;;;16.28;33.46
19576;BME280;41589;51.196;7.074;2023-06-04T05:26:49;99360.75;;;16.60;32.96
19576;BME280;41589;51.196;7.074;2023-06-04T05:31:54;99366.78;;;16.88;33.27
19576;BME280;41589;51.196;7.074;2023-06-04T05:37:02;99365.94;;;17.33;32.94
19576;BME280;41589;51.196;7.074;2023-06-04T05:42:10;99364.09;;;17.30;32.70
19576;BME280;41589;51.196;7.074;2023-06-04T05:47:24;99367.50;;;17.60;32.46
19576;BME280;41589;51.196;7.074;2023-06-04T05:52:25;99362.88;;;18.06;32.34
19576;BME280;41589;51.196;7.074;2023-06-04T05:57:25;99368.94;;;18.30;31.67
19576;BME280;41589;51.196;7.074;2023-06-04T06:02:26;99381.81;;;18.57;31.61
19576;BME280;41589;51.196;7.074;2023-06-04T06:07:30;99381.03;;;18.62;31.84
19576;BME280;41589;51.196;7.074;2023-06-04T06:12:31;99385.50;;;18.80;31.78
19576;BME280;41589;51.196;7.074;2023-06-04T06:17:31;99383.72;;;18.94;32.27
19576;BME280;41589;51.196;7.074;2023-06-04T06:22:33;99389.03;;;19.35;31.45
19576;BME280;41589;51.196;7.074;2023-06-04T06:27:34;99398.38;;;19.63;31.15
19576;BME280;41589;51.196;7.074;2023-06-04T06:32:38;99387.22;;;19.82;30.50
19576;BME280;41589;51.196;7.074;2023-06-04T06:37:38;99401.22;;;20.08;29.90
19576;BME280;41589;51.196;7.074;2023-06-04T06:42:42;99406.91;;;20.30;30.37
19576;BME280;41589;51.196;7.074;2023-06-04T06:47:42;99413.16;;;20.17;29.50
19576;BME280;41589;51.196;7.074;2023-06-04T06:52:43;99420.91;;;20.45;29.58
19576;BME280;41589;51.196;7.074;2023-06-04T06:57:45;99415.88;;;20.68;30.19
19576;BME280;41589;51.196;7.074;2023-06-04T07:02:45;99415.81;;;20.79;29.35
19576;BME280;41589;51.196;7.074;2023-06-04T07:07:46;99405.91;;;20.97;29.06
19576;BME280;41589;51.196;7.074;2023-06-04T07:12:50;99424.91;;;20.89;27.97
19576;BME280;41589;51.196;7.074;2023-06-04T07:17:50;99420.00;;;20.78;28.86
19576;BME280;41589;51.196;7.074;2023-06-04T07:22:51;99415.25;;;20.97;29.11
19576;BME280;41589;51.196;7.074;2023-06-04T07:27:51;99418.66;;;20.90;29.81
19576;BME280;41589;51.196;7.074;2023-06-04T07:32:51;99428.63;;;21.25;29.05
19576;BME280;41589;51.196;7.074;2023-06-04T07:37:52;99418.94;;;21.33;28.14
19576;BME280;41589;51.196;7.074;2023-06-04T07:42:55;99428.81;;;21.74;29.09
19576;BME280;41589;51.196;7.074;2023-06-04T07:48:03;99413.84;;;21.56;28.17
19576;BME280;41589;51.196;7.074;2023-06-04T07:53:04;99426.16;;;21.46;27.28
19576;BME280;41589;51.196;7.074;2023-06-04T07:58:52;99416.91;;;21.28;27.10
19576;BME280;41589;51.196;7.074;2023-06-04T08:03:58;99413.34;;;21.52;27.64
19576;BME280;41589;51.196;7.074;2023-06-04T08:09:35;99414.59;;;21.93;26.73
19576;BME280;41589;51.196;7.074;2023-06-04T08:14:37;99423.72;;;21.61;25.07
19576;BME280;41589;51.196;7.074;2023-06-04T08:19:38;99429.34;;;21.37;26.56
19576;BME280;41589;51.196;7.074;2023-06-04T08:24:44;99433.88;;;21.62;25.70
19576;BME280;41589;51.196;7.074;2023-06-04T08:35:26;99446.59;;;21.67;26.01
19576;BME280;41589;51.196;7.074;2023-06-04T08:40:29;99430.03;;;21.84;25.51
19576;BME280;41589;51.196;7.074;2023-06-04T08:45:41;99429.06;;;21.76;25.34
19576;BME280;41589;51.196;7.074;2023-06-04T08:50:52;99423.63;;;22.27;25.79
19576;BME280;41589;51.196;7.074;2023-06-04T09:01:00;99409.41;;;21.91;25.41
19576;BME280;41589;51.196;7.074;2023-06-04T09:06:34;99419.25;;;21.96;25.43
19576;BME280;41589;51.196;7.074;2023-06-04T09:11:46;99432.00;;;22.25;25.31
19576;BME280;41589;51.196;7.074;2023-06-04T09:16:53;99438.13;;;22.64;25.62
19576;BME280;41589;51.196;7.074;2023-06-04T09:22:01;99427.28;;;22.33;24.34
19576;BME280;41589;51.196;7.074;2023-06-04T09:27:16;99438.06;;;22.70;25.07
19576;BME280;41589;51.196;7.074;2023-06-04T09:32:29;99436.25;;;23.29;24.25
19576;BME280;41589;51.196;7.074;2023-06-04T09:37:33;99430.13;;;23.38;23.35
19576;BME280;41589;51.196;7.074;2023-06-04T09:42:48;99424.22;;;23.30;23.30
19576;BME280;41589;51.196;7.074;2023-06-04T09:47:58;99430.66;;;23.55;23.35
19576;BME280;41589;51.196;7.074;2023-06-04T09:53:38;99421.72;;;23.91;23.60
19576;BME280;41589;51.196;7.074;2023-06-04T09:58:40;99436.56;;;24.54;22.53
19576;BME280;41589;51.196;7.074;2023-06-04T10:03:52;99432.41;;;24.36;22.57
19576;BME280;41589;51.196;7.074;2023-06-04T10:09:07;99438.44;;;23.93;22.50
19576;BME280;41589;51.196;7.074;2023-06-04T10:14:20;99436.84;;;24.24;22.94
19576;BME280;41589;51.196;7.074;2023-06-04T10:19:39;99430.47;;;25.10;23.31
19576;BME280;41589;51.196;7.074;2023-06-04T10:25:13;99425.47;;;24.31;22.62
19576;BME280;41589;51.196;7.074;2023-06-04T10:30:30;99429.69;;;24.43;22.93
19576;BME280;41589;51.196;7.074;2023-06-04T10:35:44;99421.88;;;24.12;22.61
19576;BME280;41589;51.196;7.074;2023-06-04T10:40:56;99431.25;;;23.67;23.00
19576;BME280;41589;51.196;7.074;2023-06-04T10:51:41;99420.56;;;24.13;23.25
19576;BME280;41589;51.196;7.074;2023-06-04T10:57:09;99410.88;;;24.42;23.48
19576;BME280;41589;51.196;7.074;2023-06-04T11:02:33;99418.38;;;25.12;23.29
19576;BME280;41589;51.196;7.074;2023-06-04T11:07:43;99415.28;;;24.96;22.18
19576;BME280;41589;51.196;7.074;2023-06-04T11:12:49;99416.63;;;24.56;23.52
19576;BME280;41589;51.196;7.074;2023-06-04T11:17:55;99416.06;;;24.31;22.25
19576;BME280;41589;51.196;7.074;2023-06-04T11:23:00;99407.00;;;23.81;22.80
19576;BME280;41589;51.196;7.074;2023-06-04T11:28:03;99394.22;;;23.96;23.08
19576;BME280;41589;51.196;7.074;2023-06-04T11:33:05;99413.69;;;24.03;22.89
19576;BME280;41589;51.196;7.074;2023-06-04T11:38:06;99412.41;;;24.30;22.76
19576;BME280;41589;51.196;7.074;2023-06-04T11:43:10;99417.22;;;23.96;22.77
19576;BME280;41589;51.196;7.074;2023-06-04T11:48:10;99408.81;;;23.98;23.31
19576;BME280;41589;51.196;7.074;2023-06-04T11:53:11;99407.56;;;23.80;23.23
19576;BME280;41589;51.196;7.074;2023-06-04T11:58:12;99398.50;;;23.57;23.67
19576;BME280;41589;51.196;7.074;2023-06-04T12:03:12;99395.72;;;23.51;24.13
19576;BME280;41589;51.196;7.074;2023-06-04T12:08:13;99393.81;;;23.73;24.02
19576;BME280;41589;51.196;7.074;2023-06-04T12:13:13;99388.63;;;23.71;23.19
19576;BME280;41589;51.196;7.074;2023-06-04T12:18:23;99397.38;;;23.79;23.59
19576;BME280;41589;51.196;7.074;2023-06-04T12:23:23;99395.50;;;23.49;23.39
19576;BME280;41589;51.196;7.074;2023-06-04T12:28:24;99395.41;;;23.55;23.36
19576;BME280;41589;51.196;7.074;2023-06-04T12:33:24;99390.75;;;23.52;24.37
19576;BME280;41589;51.196;7.074;2023-06-04T12:38:25;99389.41;;;23.72;23.95
19576;BME280;41589;51.196;7.074;2023-06-04T12:43:25;99389.97;;;23.51;23.23
19576;BME280;41589;51.196;7.074;2023-06-04T12:48:26;99380.31;;;23.68;23.71
19576;BME280;41589;51.196;7.074;2023-06-04T12:53:27;99384.69;;;23.55;24.02
19576;BME280;41589;51.196;7.074;2023-06-04T12:58:28;99386.75;;;23.74;24.29
19576;BME280;41589;51.196;7.074;2023-06-04T13:03:30;99381.13;;;23.81;24.23
19576;BME280;41589;51.196;7.074;2023-06-04T13:08:30;99389.31;;;23.77;23.99
19576;BME280;41589;51.196;7.074;2023-06-04T13:13:31;99372.50;;;23.81;24.26
19576;BME280;41589;51.196;7.074;2023-06-04T13:18:31;99358.94;;;23.63;24.06
19576;BME280;41589;51.196;7.074;2023-06-04T13:23:32;99364.16;;;23.65;24.30
19576;BME280;41589;51.196;7.074;2023-06-04T13:28:32;99355.63;;;24.04;24.52
19576;BME280;41589;51.196;7.074;2023-06-04T13:33:32;99381.09;;;24.27;24.11
19576;BME280;41589;51.196;7.074;2023-06-04T13:38:35;99371.25;;;24.22;24.40
19576;BME280;41589;51.196;7.074;2023-06-04T13:43:35;99369.78;;;24.02;24.16
19576;BME280;41589;51.196;7.074;2023-06-04T13:48:35;99365.28;;;24.33;24.61
19576;BME280;41589;51.196;7.074;2023-06-04T13:53:36;99353.34;;;24.56;24.02
19576;BME280;41589;51.196;7.074;2023-06-04T13:58:36;99339.50;;;24.54;24.28
19576;BME280;41589;51.196;7.074;2023-06-04T14:03:36;99344.94;;;24.44;24.08
19576;BME280;41589;51.196;7.074;2023-06-04T14:08:37;99334.75;;;24.43;24.73
19576;BME280;41589;51.196;7.074;2023-06-04T14:13:37;99333.88;;;24.49;25.38
19576;BME280;41589;51.196;7.074;2023-06-04T14:18:38;99338.84;;;24.22;24.26
19576;BME280;41589;51.196;7.074;2023-06-04T14:23:39;99336.19;;;24.10;23.96
19576;BME280;41589;51.196;7.074;2023-06-04T14:28:39;99325.13;;;24.28;24.94
19576;BME280;41589;51.196;7.074;2023-06-04T14:33:40;99333.13;;;24.48;24.12
19576;BME280;41589;51.196;7.074;2023-06-04T14:38:40;99327.91;;;24.46;23.77
19576;BME280;41589;51.196;7.074;2023-06-04T14:43:40;99334.97;;;24.45;24.13
19576;BME280;41589;51.196;7.074;2023-06-04T14:48:41;99341.84;;;24.29;23.77
19576;BME280;41589;51.196;7.074;2023-06-04T14:53:41;99320.69;;;24.13;24.44
19576;BME280;41589;51.196;7.074;2023-06-04T14:58:41;99321.25;;;24.52;24.38
19576;BME280;41589;51.196;7.074;2023-06-04T15:03:42;99329.00;;;24.30;23.75
19576;BME280;41589;51.196;7.074;2023-06-04T15:08:42;99329.09;;;24.25;23.76
19576;BME280;41589;51.196;7.074;2023-06-04T15:13:43;99334.03;;;23.84;23.87
19576;BME280;41589;51.196;7.074;2023-06-04T15:18:43;99323.00;;;23.88;23.04
19576;BME280;41589;51.196;7.074;2023-06-04T15:23:43;99317.59;;;23.98;23.04
19576;BME280;41589;51.196;7.074;2023-06-04T15:28:46;99321.91;;;24.31;22.87
19576;BME280;41589;51.196;7.074;2023-06-04T15:33:46;99317.06;;;24.00;22.47
19576;BME280;41589;51.196;7.074;2023-06-04T15:38:48;99323.03;;;24.28;22.64
19576;BME280;41589;51.196;7.074;2023-06-04T15:43:51;99304.03;;;24.86;21.96
19576;BME280;41589;51.196;7.074;2023-06-04T15:48:52;99298.56;;;24.95;21.70
19576;BME280;41589;51.196;7.074;2023-06-04T15:53:52;99309.81;;;24.72;21.34
19576;BME280;41589;51.196;7.074;2023-06-04T15:58:53;99307.97;;;24.62;21.48
19576;BME280;41589;51.196;7.074;2023-06-04T16:03:53;99293.44;;;24.67;21.31
19576;BME280;41589;51.196;7.074;2023-06-04T16:08:54;99301.13;;;25.20;21.04
19576;BME280;41589;51.196;7.074;2023-06-04T16:13:54;99288.44;;;24.81;21.27
19576;BME280;41589;51.196;7.074;2023-06-04T16:18:54;99289.84;;;25.43;20.92
19576;BME280;41589;51.196;7.074;2023-06-04T16:23:55;99292.97;;;24.76;21.24
19576;BME280;41589;51.196;7.074;2023-06-04T16:28:55;99295.81;;;24.29;21.13
19576;BME280;41589;51.196;7.074;2023-06-04T16:33:55;99295.72;;;23.95;21.90
19576;BME280;41589;51.196;7.074;2023-06-04T16:38:56;99291.75;;;23.85;21.86
19576;BME280;41589;51.196;7.074;2023-06-04T16:43:56;99288.06;;;23.71;21.88
19576;BME280;41589;51.196;7.074;2023-06-04T16:48:56;99286.69;;;23.59;21.84
19576;BME280;41589;51.196;7.074;2023-06-04T16:53:57;99273.03;;;23.78;22.24
19576;BME280;41589;51.196;7.074;2023-06-04T16:58:57;99290.66;;;23.56;22.92
19576;BME280;41589;51.196;7.074;2023-06-04T17:03:57;99286.56;;;23.51;22.64
19576;BME280;41589;51.196;7.074;2023-06-04T17:08:58;99281.56;;;23.39;22.16
19576;BME280;41589;51.196;7.074;2023-06-04T17:13:58;99274.78;;;23.23;22.25
19576;BME280;41589;51.196;7.074;2023-06-04T17:18:59;99286.38;;;23.30;22.44
19576;BME280;41589;51.196;7.074;2023-06-04T17:23:59;99292.38;;;23.32;22.27
19576;BME280;41589;51.196;7.074;2023-06-04T17:29:00;99293.78;;;23.26;21.80
19576;BME280;41589;51.196;7.074;2023-06-04T17:34:01;99280.03;;;23.06;22.47
19576;BME280;41589;51.196;7.074;2023-06-04T17:39:03;99286.22;;;23.10;22.47
19576;BME280;41589;51.196;7.074;2023-06-04T17:44:04;99291.94;;;23.10;22.49
19576;BME280;41589;51.196;7.074;2023-06-04T17:49:04;99284.13;;;22.91;22.56
19576;BME280;41589;51.196;7.074;2023-06-04T17:54:09;99287.94;;;23.31;22.53
19576;BME280;41589;51.196;7.074;2023-06-04T17:59:10;99292.72;;;23.10;22.32
19576;BME280;41589;51.196;7.074;2023-06-04T18:04:10;99295.69;;;23.04;22.54
19576;BME280;41589;51.196;7.074;2023-06-04T18:09:13;99292.50;;;23.08;22.80
19576;BME280;41589;51.196;7.074;2023-06-04T18:14:13;99297.28;;;23.00;22.82
19576;BME280;41589;51.196;7.074;2023-06-04T18:19:16;99302.53;;;22.64;22.98
19576;BME280;41589;51.196;7.074;2023-06-04T18:24:20;99305.28;;;22.69;23.41
19576;BME280;41589;51.196;7.074;2023-06-04T18:29:20;99298.16;;;22.57;23.81
19576;BME280;41589;51.196;7.074;2023-06-04T18:34:21;99309.03;;;22.64;23.97
19576;BME280;41589;51.196;7.074;2023-06-04T18:39:23;99295.06;;;22.55;23.66
19576;BME280;41589;51.196;7.074;2023-06-04T18:44:25;99295.16;;;22.50;24.09
19576;BME280;41589;51.196;7.074;2023-06-04T18:49:26;99302.22;;;22.24;24.36
19576;BME280;41589;51.196;7.074;2023-06-04T18:54:26;99304.56;;;22.01;24.78
19576;BME280;41589;51.196;7.074;2023-06-04T18:59:27;99311.72;;;22.13;24.69
19576;BME280;41589;51.196;7.074;2023-06-04T19:04:27;99302.44;;;22.07;24.82
19576;BME280;41589;51.196;7.074;2023-06-04T19:09:28;99304.31;;;21.75;24.80
19576;BME280;41589;51.196;7.074;2023-06-04T19:14:29;99307.19;;;21.75;25.03
19576;BME280;41589;51.196;7.074;2023-06-04T19:19:30;99311.72;;;21.65;25.63
19576;BME280;41589;51.196;7.074;2023-06-04T19:24:33;99299.56;;;21.53;25.76
19576;BME280;41589;51.196;7.074;2023-06-04T19:29:34;99323.84;;;21.46;26.15
19576;BME280;41589;51.196;7.074;2023-06-04T19:34:36;99324.66;;;21.41;25.99
19576;BME280;41589;51.196;7.074;2023-06-04T19:39:39;99319.56;;;21.28;26.35
19576;BME280;41589;51.196;7.074;2023-06-04T19:44:42;99330.59;;;21.13;26.54
19576;BME280;41589;51.196;7.074;2023-06-04T19:49:43;99335.06;;;21.09;26.72
19576;BME280;41589;51.196;7.074;2023-06-04T19:54:45;99341.88;;;21.00;27.11
19576;BME280;41589;51.196;7.074;2023-06-04T19:59:46;99345.31;;;20.93;27.58
19576;BME280;41589;51.196;7.074;2023-06-04T20:04:46;99338.84;;;20.81;27.58
19576;BME280;41589;51.196;7.074;2023-06-04T20:09:51;99345.69;;;20.67;28.00
19576;BME280;41589;51.196;7.074;2023-06-04T20:14:52;99349.59;;;20.64;28.15
19576;BME280;41589;51.196;7.074;2023-06-04T20:19:53;99355.63;;;20.55;28.77
19576;BME280;41589;51.196;7.074;2023-06-04T20:24:54;99346.88;;;20.36;29.05
19576;BME280;41589;51.196;7.074;2023-06-04T20:29:55;99357.75;;;20.37;29.01
19576;BME280;41589;51.196;7.074;2023-06-04T20:34:56;99362.75;;;20.31;29.28
19576;BME280;41589;51.196;7.074;2023-06-04T20:39:56;99353.69;;;20.22;29.43
19576;BME280;41589;51.196;7.074;2023-06-04T20:44:57;99371.84;;;20.18;29.80
19576;BME280;41589;51.196;7.074;2023-06-04T20:49:57;99367.97;;;20.05;29.93
19576;BME280;41589;51.196;7.074;2023-06-04T20:54:58;99372.13;;;19.98;29.93
19576;BME280;41589;51.196;7.074;2023-06-04T20:59:58;99373.44;;;19.86;30.12
19576;BME280;41589;51.196;7.074;2023-06-04T21:04:59;99376.84;;;19.90;30.29
19576;BME280;41589;51.196;7.074;2023-06-04T21:09:59;99374.50;;;19.88;30.11
19576;BME280;41589;51.196;7.074;2023-06-04T21:15:00;99377.59;;;19.85;30.23
19576;BME280;41589;51.196;7.074;2023-06-04T21:20:00;99380.19;;;19.77;30.17
19576;BME280;41589;51.196;7.074;2023-06-04T21:25:01;99385.41;;;19.79;30.21
19576;BME280;41589;51.196;7.074;2023-06-04T21:30:01;99392.69;;;19.69;30.64
19576;BME280;41589;51.196;7.074;2023-06-04T21:35:02;99389.56;;;19.61;30.59
19576;BME280;41589;51.196;7.074;2023-06-04T21:40:03;99382.53;;;19.45;30.82
19576;BME280;41589;51.196;7.074;2023-06-04T21:45:07;99391.13;;;19.40;30.82
19576;BME280;41589;51.196;7.074;2023-06-04T21:50:08;99392.16;;;19.37;30.84
19576;BME280;41589;51.196;7.074;2023-06-04T21:55:12;99391.34;;;19.36;30.72
19576;BME280;41589;51.196;7.074;2023-06-04T22:00:13;99388.50;;;19.30;31.03
19576;BME280;41589;51.196;7.074;2023-06-04T22:05:13;99388.72;;;19.21;31.23
19576;BME280;41589;51.196;7.074;2023-06-04T22:10:16;99397.53;;;19.12;31.14
19576;BME280;41589;51.196;7.074;2023-06-04T22:15:17;99398.81;;;19.11;31.16
19576;BME280;41589;51.196;7.074;2023-06-04T22:20:17;99396.75;;;19.12;31.19
19576;BME280;41589;51.196;7.074;2023-06-04T22:25:20;99388.69;;;19.04;31.22
19576;BME280;41589;51.196;7.074;2023-06-04T22:30:26;99394.66;;;19.12;31.19
19576;BME280;41589;51.196;7.074;2023-06-04T22:35:27;99395.72;;;19.09;31.01
19576;BME280;41589;51.196;7.074;2023-06-04T22:40:28;99385.06;;;19.10;30.88
19576;BME280;41589;51.196;7.074;2023-06-04T22:45:28;99396.72;;;18.95;31.20
19576;BME280;41589;51.196;7.074;2023-06-04T22:50:29;99390.22;;;18.89;31.29
19576;BME280;41589;51.196;7.074;2023-06-04T22:55:29;99409.84;;;18.70;31.88
19576;BME280;41589;51.196;7.074;2023-06-04T23:00:30;99396.31;;;18.54;32.28
19576;BME280;41589;51.196;7.074;2023-06-04T23:05:31;99396.31;;;18.59;31.81
19576;BME280;41589;51.196;7.074;2023-06-04T23:10:32;99393.09;;;18.40;32.49
19576;BME280;41589;51.196;7.074;2023-06-04T23:15:35;99398.53;;;18.33;32.83
19576;BME280;41589;51.196;7.074;2023-06-04T23:20:36;99385.47;;;18.21;33.57
19576;BME280;41589;51.196;7.074;2023-06-04T23:25:39;99405.06;;;18.02;33.99
19576;BME280;41589;51.196;7.074;2023-06-04T23:30:40;99392.09;;;17.64;35.24
19576;BME280;41589;51.196;7.074;2023-06-04T23:35:40;99403.22;;;17.62;35.77
19576;BME280;41589;51.196;7.074;2023-06-04T23:40:41;99404.19;;;17.58;36.20
19576;BME280;41589;51.196;7.074;2023-06-04T23:45:41;99404.06;;;17.47;36.80
19576;BME280;41589;51.196;7.074;2023-06-04T23:50:42;99412.50;;;17.36;37.80
19576;BME280;41589;51.196;7.074;2023-06-04T23:55:42;99399.97;;;17.22;38.59
